createdAt,value
2023-05-20T00:03:45.211Z,100546.72
2023-05-20T00:08:36.869Z,100554.50
2023-05-20T00:13:28.604Z,100557.63
2023-05-20T00:18:20.244Z,100546.53
2023-05-20T00:23:11.943Z,100548.84
2023-05-20T00:28:03.709Z,100550.72
2023-05-20T00:32:55.531Z,100548.63
2023-05-20T00:37:47.193Z,100554.47
2023-05-20T00:42:38.864Z,100552.81
2023-05-20T00:47:33.801Z,100557.81
2023-05-20T00:52:25.830Z,100551.78
2023-05-20T00:57:19.217Z,100553.00
2023-05-20T01:02:11.483Z,100559.03
2023-05-20T01:07:06.100Z,100555.47
2023-05-20T01:12:07.102Z,100555.41
2023-05-20T01:17:02.244Z,100549.16
2023-05-20T01:21:55.553Z,100554.53
2023-05-20T01:26:48.497Z,100549.72
2023-05-20T01:31:40.479Z,100544.91
2023-05-20T01:36:33.645Z,100545.50
2023-05-20T01:41:27.434Z,100546.31
2023-05-20T01:46:19.161Z,100549.66
2023-05-20T01:51:11.172Z,100553.19
2023-05-20T01:56:03.097Z,100550.44
2023-05-20T02:00:54.828Z,100554.38
2023-05-20T02:05:46.525Z,100557.91
2023-05-20T02:10:38.208Z,100558.72
2023-05-20T02:15:29.881Z,100557.88
2023-05-20T02:20:21.600Z,100555.69
2023-05-20T02:25:13.293Z,100556.66
2023-05-20T02:30:05.645Z,100553.00
2023-05-20T02:34:57.298Z,100562.28
2023-05-20T02:39:48.908Z,100549.66
2023-05-20T02:44:41.356Z,100545.97
2023-05-20T02:49:33.019Z,100543.78
2023-05-20T02:54:24.736Z,100543.47
2023-05-20T02:59:16.455Z,100535.06
2023-05-20T03:04:08.748Z,100537.53
2023-05-20T03:09:00.424Z,100535.59
2023-05-20T03:13:52.148Z,100538.03
2023-05-20T03:18:43.936Z,100526.47
2023-05-20T03:23:35.963Z,100534.34
2023-05-20T03:28:27.639Z,100533.03
2023-05-20T03:33:19.337Z,100529.22
2023-05-20T03:38:11.024Z,100529.59
2023-05-20T03:43:02.630Z,100532.50
2023-05-20T03:47:54.379Z,100532.06
2023-05-20T03:52:46.057Z,100528.72
2023-05-20T03:57:37.945Z,100529.72
2023-05-20T04:02:30.165Z,100520.78
2023-05-20T04:07:22.001Z,100520.78
2023-05-20T04:12:14.047Z,100519.72
2023-05-20T04:17:06.762Z,100520.97
2023-05-20T04:21:58.452Z,100520.97
2023-05-20T04:26:50.197Z,100514.06
2023-05-20T04:31:41.809Z,100521.16
2023-05-20T04:36:34.790Z,100518.63
2023-05-20T04:41:27.431Z,100528.13
2023-05-20T04:46:20.588Z,100525.25
2023-05-20T04:51:12.309Z,100525.91
2023-05-20T04:56:04.145Z,100528.22
2023-05-20T05:00:56.598Z,100534.28
2023-05-20T05:05:48.611Z,100513.13
2023-05-20T05:10:40.418Z,100520.41
2023-05-20T05:15:32.343Z,100529.94
2023-05-20T05:20:24.209Z,100525.69
2023-05-20T05:25:16.511Z,100532.47
2023-05-20T05:30:08.609Z,100523.31
2023-05-20T05:35:00.290Z,100517.84
2023-05-20T05:39:52.459Z,100531.00
2023-05-20T05:44:44.705Z,100530.66
2023-05-20T05:49:36.343Z,100525.09
2023-05-20T05:54:27.998Z,100532.44
2023-05-20T05:59:20.194Z,100530.91
2023-05-20T06:04:11.907Z,100527.75
2023-05-20T06:09:03.769Z,100524.59
2023-05-20T06:13:55.710Z,100516.84
2023-05-20T06:18:50.129Z,100513.81
2023-05-20T06:23:41.810Z,100512.78
2023-05-20T06:28:33.984Z,100511.84
2023-05-20T06:33:27.236Z,100514.00
2023-05-20T06:38:20.177Z,100512.09
2023-05-20T06:43:11.849Z,100517.84
2023-05-20T06:48:03.618Z,100519.19
2023-05-20T06:52:55.449Z,100508.53
2023-05-20T06:57:47.097Z,100508.59
2023-05-20T07:02:38.870Z,100501.38
2023-05-20T07:07:30.606Z,100502.75
2023-05-20T07:12:22.195Z,100496.53
2023-05-20T07:17:13.805Z,100497.00
2023-05-20T07:22:05.836Z,100492.47
2023-05-20T07:26:57.599Z,100500.66
2023-05-20T07:31:49.304Z,100496.56
2023-05-20T07:36:40.962Z,100499.47
2023-05-20T07:41:32.769Z,100506.66
2023-05-20T07:46:24.529Z,100500.34
2023-05-20T07:51:16.344Z,100496.69
2023-05-20T07:56:08.353Z,100506.47
2023-05-20T08:01:00.001Z,100507.34
2023-05-20T08:05:51.890Z,100503.31
2023-05-20T08:10:43.505Z,100504.56
2023-05-20T08:15:36.648Z,100500.72
2023-05-20T08:20:29.697Z,100508.78
2023-05-20T08:25:21.432Z,100497.13
2023-05-20T08:30:13.734Z,100505.72
2023-05-20T08:35:07.650Z,100499.91
2023-05-20T08:39:59.293Z,100492.75
2023-05-20T08:44:53.942Z,100484.41
2023-05-20T08:49:46.173Z,100486.81
2023-05-20T08:54:46.229Z,100483.53
2023-05-20T08:59:37.942Z,100467.47
2023-05-20T09:04:29.697Z,100461.25
2023-05-20T09:09:21.417Z,100476.63
2023-05-20T09:14:13.051Z,100476.53
2023-05-20T09:19:07.485Z,100470.16
2023-05-20T09:24:02.413Z,100468.47
2023-05-20T09:28:56.150Z,100466.31
2023-05-20T09:33:49.575Z,100464.88
2023-05-20T09:38:41.715Z,100461.06
2023-05-20T09:43:33.653Z,100457.28
2023-05-20T09:48:26.026Z,100446.75
2023-05-20T09:53:18.576Z,100437.81
2023-05-20T09:58:14.792Z,100434.50
2023-05-20T10:03:08.327Z,100444.19
2023-05-20T10:08:29.642Z,100432.91
2023-05-20T10:13:27.075Z,100442.72
2023-05-20T10:18:30.105Z,100431.34
2023-05-20T10:23:29.009Z,100429.06
2023-05-20T10:28:33.151Z,100421.69
2023-05-20T10:33:27.904Z,100422.22
2023-05-20T10:38:20.851Z,100417.84
2023-05-20T10:43:18.817Z,100411.66
2023-05-20T10:48:30.348Z,100407.09
2023-05-20T10:58:17.768Z,100383.63
2023-05-20T11:03:10.153Z,100395.09
2023-05-20T11:08:16.981Z,100388.47
2023-05-20T11:13:18.246Z,100384.91
2023-05-20T11:18:11.640Z,100378.56
2023-05-20T11:23:03.650Z,100371.19
2023-05-20T11:27:55.295Z,100367.31
2023-05-20T11:32:59.528Z,100358.72
2023-05-20T11:38:00.928Z,100352.31
2023-05-20T11:43:00.260Z,100345.88
2023-05-20T11:48:05.458Z,100353.56
2023-05-20T11:52:58.884Z,100354.09
2023-05-20T11:57:52.085Z,100346.53
2023-05-20T12:02:44.730Z,100334.81
2023-05-20T12:07:36.843Z,100342.78
2023-05-20T12:12:28.484Z,100338.31
2023-05-20T12:17:20.137Z,100325.78
2023-05-20T12:22:11.788Z,100326.16
2023-05-20T12:27:06.525Z,100326.34
2023-05-20T12:31:58.246Z,100314.72
2023-05-20T12:36:50.037Z,100314.41
2023-05-20T12:41:42.448Z,100304.13
2023-05-20T12:46:34.142Z,100309.56
2023-05-20T12:51:26.104Z,100300.63
2023-05-20T12:56:18.808Z,100307.59
2023-05-20T13:01:10.618Z,100299.94
2023-05-20T13:06:02.918Z,100293.31
2023-05-20T13:10:54.539Z,100292.47
2023-05-20T13:15:46.974Z,100286.38
2023-05-20T13:20:38.997Z,100289.41
2023-05-20T13:25:31.929Z,100275.59
2023-05-20T13:30:23.509Z,100270.09
2023-05-20T13:35:16.984Z,100277.81
2023-05-20T13:40:09.472Z,100284.69
2023-05-20T13:45:01.218Z,100265.56
2023-05-20T13:49:53.075Z,100256.16
2023-05-20T13:54:47.398Z,100258.38
2023-05-20T13:59:39.867Z,100256.16
2023-05-20T14:04:31.574Z,100253.94
2023-05-20T14:09:23.277Z,100244.88
2023-05-20T14:14:14.879Z,100249.06
2023-05-20T14:19:08.927Z,100237.19
2023-05-20T14:24:01.432Z,100238.81
2023-05-20T14:28:53.145Z,100223.38
2023-05-20T14:33:44.806Z,100213.44
2023-05-20T14:38:37.216Z,100212.63
2023-05-20T14:43:28.888Z,100212.88
2023-05-20T14:48:20.746Z,100205.97
2023-05-20T14:53:12.353Z,100194.72
2023-05-20T14:58:04.194Z,100202.13
2023-05-20T15:02:56.062Z,100187.22
2023-05-20T15:07:47.782Z,100187.22
2023-05-20T15:12:39.684Z,100183.63
2023-05-20T15:17:31.507Z,100182.78
2023-05-20T15:22:23.193Z,100177.78
2023-05-20T15:27:14.977Z,100177.78
2023-05-20T15:32:06.823Z,100166.50
2023-05-20T15:36:58.464Z,100167.34
2023-05-20T15:41:52.164Z,100167.56
2023-05-20T15:46:44.872Z,100151.81
2023-05-20T15:51:36.538Z,100163.13
2023-05-20T15:56:29.531Z,100156.84
2023-05-20T16:01:22.850Z,100162.06
2023-05-20T16:06:14.656Z,100141.06
2023-05-20T16:11:07.586Z,100139.44
2023-05-20T16:16:00.031Z,100147.97
2023-05-20T16:20:51.916Z,100149.88
2023-05-20T16:25:43.689Z,100149.47
2023-05-20T16:30:35.771Z,100140.84
2023-05-20T16:35:27.972Z,100132.34
2023-05-20T16:40:19.674Z,100141.69
2023-05-20T16:45:12.502Z,100139.69
2023-05-20T16:50:04.711Z,100129.69
2023-05-20T16:54:58.665Z,100126.75
2023-05-20T16:59:50.543Z,100121.25
2023-05-20T17:04:43.396Z,100114.06
2023-05-20T17:09:35.392Z,100122.59
2023-05-20T17:14:27.063Z,100110.25
2023-05-20T17:19:18.818Z,100106.63
2023-05-20T17:24:10.603Z,100112.09
2023-05-20T17:29:02.358Z,100116.72
2023-05-20T17:33:54.095Z,100112.84
2023-05-20T17:38:46.011Z,100105.91
2023-05-20T17:43:37.645Z,100106.97
2023-05-20T17:48:31.318Z,100113.47
2023-05-20T17:53:22.990Z,100113.09
2023-05-20T17:58:14.669Z,100121.06
2023-05-20T18:03:06.557Z,100114.38
2023-05-20T18:07:58.316Z,100128.34
2023-05-20T18:12:50.201Z,100114.50
2023-05-20T18:17:41.950Z,100117.47
2023-05-20T18:22:33.684Z,100122.59
2023-05-20T18:27:25.633Z,100109.34
2023-05-20T18:32:17.556Z,100111.69
2023-05-20T18:37:09.176Z,100117.31
2023-05-20T18:42:01.022Z,100113.88
2023-05-20T18:46:52.719Z,100111.28
2023-05-20T18:51:44.379Z,100101.81
2023-05-20T18:56:36.361Z,100108.84
2023-05-20T19:01:29.421Z,100109.53
2023-05-20T19:06:21.948Z,100121.19
2023-05-20T19:11:13.684Z,100119.41
2023-05-20T19:16:05.612Z,100116.50
2023-05-20T19:20:57.274Z,100120.50
2023-05-20T19:25:48.954Z,100115.19
2023-05-20T19:30:40.749Z,100113.59
2023-05-20T19:35:33.519Z,100122.22
2023-05-20T19:40:25.619Z,100125.38
2023-05-20T19:45:17.456Z,100135.34
2023-05-20T19:50:10.475Z,100136.56
2023-05-20T19:55:02.752Z,100142.66
2023-05-20T19:59:54.396Z,100150.13
2023-05-20T20:04:47.205Z,100139.72
2023-05-20T20:09:38.775Z,100148.53
2023-05-20T20:14:30.916Z,100150.50
2023-05-20T20:19:23.064Z,100158.50
2023-05-20T20:24:16.019Z,100147.56
2023-05-20T20:29:08.170Z,100146.75
2023-05-20T20:33:59.919Z,100143.69
2023-05-20T20:38:51.523Z,100163.41
2023-05-20T20:43:47.458Z,100163.66
2023-05-20T20:48:39.065Z,100165.31
2023-05-20T20:53:30.712Z,100177.06
2023-05-20T20:58:22.778Z,100175.41
2023-05-20T21:03:14.439Z,100182.63
2023-05-20T21:08:08.450Z,100182.72
2023-05-20T21:13:00.458Z,100181.41
2023-05-20T21:17:52.589Z,100178.13
2023-05-20T21:22:44.331Z,100182.63
2023-05-20T21:27:36.096Z,100188.19
2023-05-20T21:32:27.851Z,100182.19
2023-05-20T21:37:19.525Z,100177.31
2023-05-20T21:42:11.263Z,100180.13
2023-05-20T21:47:02.962Z,100182.78
2023-05-20T21:51:54.669Z,100175.63
2023-05-20T21:56:46.237Z,100161.44
2023-05-20T22:01:37.891Z,100160.69
2023-05-20T22:06:29.522Z,100161.38
2023-05-20T22:11:21.669Z,100167.72
2023-05-20T22:16:14.327Z,100160.69
2023-05-20T22:21:06.930Z,100160.78
2023-05-20T22:25:58.589Z,100160.63
2023-05-20T22:30:50.259Z,100150.22
2023-05-20T22:35:41.973Z,100146.09
2023-05-20T22:40:33.781Z,100150.16
2023-05-20T22:45:25.466Z,100153.03
2023-05-20T22:50:18.221Z,100170.72
2023-05-20T22:55:11.753Z,100163.03
2023-05-20T23:00:04.997Z,100159.53
2023-05-20T23:04:56.672Z,100157.91
2023-05-20T23:09:48.715Z,100162.78
2023-05-20T23:14:40.556Z,100160.13
2023-05-20T23:19:32.232Z,100164.56
2023-05-20T23:24:23.990Z,100152.03
2023-05-20T23:29:15.670Z,100153.13
2023-05-20T23:34:07.533Z,100151.50
2023-05-20T23:38:59.268Z,100158.22
2023-05-20T23:43:51.158Z,100153.63
2023-05-20T23:48:45.005Z,100149.50
2023-05-20T23:53:36.749Z,100146.81
2023-05-20T23:58:28.363Z,100152.75
